createdAt,value
2023-05-24T00:02:15.277Z,58.85
2023-05-24T00:04:42.464Z,58.22
2023-05-24T00:07:09.220Z,58.07
2023-05-24T00:09:36.070Z,59.20
2023-05-24T00:12:03.090Z,58.49
2023-05-24T00:14:30.332Z,57.68
2023-05-24T00:16:57.064Z,59.02
2023-05-24T00:19:24.170Z,59.81
2023-05-24T00:21:51.380Z,59.85
2023-05-24T00:24:18.324Z,59.74
2023-05-24T00:26:45.539Z,59.94
2023-05-24T00:29:12.309Z,59.10
2023-05-24T00:31:39.061Z,61.40
2023-05-24T00:34:06.491Z,64.32
2023-05-24T00:36:33.310Z,63.96
2023-05-24T00:39:00.257Z,63.50
2023-05-24T00:41:27.007Z,62.02
2023-05-24T00:43:53.770Z,61.04
2023-05-24T00:46:32.256Z,60.07
2023-05-24T00:49:00.816Z,59.41
2023-05-24T00:51:28.736Z,60.00
2023-05-24T00:53:56.284Z,59.63
2023-05-24T00:56:23.535Z,59.40
2023-05-24T00:58:54.859Z,59.41
2023-05-24T01:01:25.916Z,58.53
2023-05-24T01:03:57.506Z,58.47
2023-05-24T01:06:27.260Z,57.93
2023-05-24T01:09:28.965Z,57.78
2023-05-24T01:12:13.876Z,56.57
2023-05-24T01:15:06.672Z,58.48
2023-05-24T01:17:42.890Z,59.03
2023-05-24T01:20:13.434Z,58.27
2023-05-24T01:22:52.137Z,57.53
2023-05-24T01:25:43.139Z,58.15
2023-05-24T01:28:11.865Z,58.07
2023-05-24T01:30:42.766Z,57.79
2023-05-24T01:33:10.055Z,58.23
2023-05-24T01:35:40.468Z,58.12
2023-05-24T01:38:07.736Z,57.97
2023-05-24T01:40:34.982Z,59.46
2023-05-24T01:43:22.298Z,59.61
2023-05-24T01:45:55.826Z,60.28
2023-05-24T01:48:22.476Z,60.42
2023-05-24T01:50:53.645Z,59.50
2023-05-24T01:53:23.116Z,58.91
2023-05-24T01:55:54.160Z,58.27
2023-05-24T01:58:25.167Z,57.81
2023-05-24T02:00:52.291Z,57.94
2023-05-24T02:03:20.116Z,57.71
2023-05-24T02:05:47.037Z,58.62
2023-05-24T02:08:13.907Z,60.70
2023-05-24T02:10:41.242Z,62.14
2023-05-24T02:13:09.428Z,61.70
2023-05-24T02:15:36.519Z,61.20
2023-05-24T02:18:04.230Z,61.49
2023-05-24T02:20:31.540Z,62.52
2023-05-24T02:22:58.487Z,60.83
2023-05-24T02:25:25.663Z,60.08
2023-05-24T02:27:52.526Z,60.08
2023-05-24T02:30:19.315Z,59.31
2023-05-24T02:32:46.870Z,58.44
2023-05-24T02:35:13.802Z,58.22
2023-05-24T02:37:41.112Z,57.85
2023-05-24T02:40:09.417Z,57.66
2023-05-24T02:42:36.370Z,57.58
2023-05-24T02:45:04.805Z,59.37
2023-05-24T02:47:31.517Z,59.59
2023-05-24T02:49:58.220Z,60.63
2023-05-24T02:52:24.888Z,61.30
2023-05-24T02:54:51.546Z,61.03
2023-05-24T02:57:18.408Z,61.31
2023-05-24T02:59:45.029Z,60.52
2023-05-24T03:02:13.864Z,60.05
2023-05-24T03:04:40.595Z,61.15
2023-05-24T03:07:07.345Z,61.91
2023-05-24T03:09:33.940Z,61.55
2023-05-24T03:12:00.742Z,62.83
2023-05-24T03:14:27.508Z,61.64
2023-05-24T03:16:54.187Z,60.81
2023-05-24T03:19:20.873Z,60.50
2023-05-24T03:21:47.520Z,59.69
2023-05-24T03:24:14.400Z,60.31
2023-05-24T03:26:41.252Z,60.06
2023-05-24T03:29:07.893Z,59.55
2023-05-24T03:31:34.635Z,59.66
2023-05-24T03:34:01.407Z,59.65
2023-05-24T03:36:29.282Z,59.03
2023-05-24T03:38:58.500Z,59.04
2023-05-24T03:41:25.454Z,60.25
2023-05-24T03:43:52.806Z,59.68
2023-05-24T03:46:19.594Z,58.95
2023-05-24T03:48:46.535Z,58.38
2023-05-24T03:51:13.213Z,58.48
2023-05-24T03:53:40.014Z,58.54
2023-05-24T03:56:06.925Z,59.85
2023-05-24T03:58:33.728Z,62.66
2023-05-24T04:01:01.244Z,63.48
2023-05-24T04:03:28.657Z,65.10
2023-05-24T04:05:55.391Z,64.36
2023-05-24T04:08:22.319Z,62.84
2023-05-24T04:10:49.047Z,62.45
2023-05-24T04:13:15.780Z,60.98
2023-05-24T04:15:43.561Z,60.29
2023-05-24T04:18:10.421Z,59.72
2023-05-24T04:20:37.410Z,59.82
2023-05-24T04:23:04.182Z,58.87
2023-05-24T04:25:30.930Z,58.21
2023-05-24T04:27:57.638Z,56.89
2023-05-24T04:30:24.404Z,56.40
2023-05-24T04:32:51.454Z,56.08
2023-05-24T04:35:18.442Z,56.32
2023-05-24T04:37:46.730Z,57.13
2023-05-24T04:40:13.603Z,58.17
2023-05-24T04:42:43.177Z,58.45
2023-05-24T04:45:10.309Z,59.21
2023-05-24T04:47:37.015Z,59.44
2023-05-24T04:50:04.254Z,57.71
2023-05-24T04:52:31.092Z,56.61
2023-05-24T04:54:58.250Z,58.09
2023-05-24T04:57:25.111Z,60.71
2023-05-24T04:59:51.817Z,60.04
2023-05-24T05:02:18.803Z,58.78
2023-05-24T05:04:45.452Z,57.93
2023-05-24T05:07:12.098Z,58.41
2023-05-24T05:09:38.760Z,57.43
2023-05-24T05:12:05.674Z,57.21
2023-05-24T05:14:32.420Z,58.44
2023-05-24T05:16:59.189Z,57.72
2023-05-24T05:19:25.816Z,57.95
2023-05-24T05:21:52.448Z,57.88
2023-05-24T05:24:19.180Z,56.31
2023-05-24T05:26:45.798Z,55.86
2023-05-24T05:29:12.460Z,57.10
2023-05-24T05:31:39.753Z,57.80
2023-05-24T05:34:09.958Z,59.28
2023-05-24T05:36:41.088Z,57.36
2023-05-24T05:39:11.522Z,55.52
2023-05-24T05:41:46.492Z,55.10
2023-05-24T05:44:13.685Z,54.20
2023-05-24T05:46:41.622Z,54.86
2023-05-24T05:49:08.452Z,54.27
2023-05-24T05:51:35.204Z,54.17
2023-05-24T05:54:01.888Z,54.76
2023-05-24T05:56:28.785Z,55.57
2023-05-24T05:58:55.739Z,53.57
2023-05-24T06:01:23.693Z,53.99
2023-05-24T06:03:51.598Z,53.43
2023-05-24T06:06:18.433Z,53.74
2023-05-24T06:08:45.094Z,52.71
2023-05-24T06:11:11.798Z,52.99
2023-05-24T06:13:38.459Z,53.78
2023-05-24T06:16:05.345Z,53.96
2023-05-24T06:18:32.740Z,52.88
2023-05-24T06:20:59.416Z,51.92
2023-05-24T06:23:26.142Z,50.63
2023-05-24T06:25:52.808Z,53.10
2023-05-24T06:28:19.417Z,51.56
2023-05-24T06:30:47.591Z,52.38
2023-05-24T06:33:14.359Z,51.30
2023-05-24T06:35:41.143Z,50.84
2023-05-24T06:38:07.911Z,50.40
2023-05-24T06:40:34.625Z,49.42
2023-05-24T06:43:01.959Z,50.06
2023-05-24T06:45:28.660Z,51.11
2023-05-24T06:47:55.428Z,51.00
2023-05-24T06:50:25.398Z,48.85
2023-05-24T06:52:53.671Z,47.24
2023-05-24T06:55:20.767Z,46.18
2023-05-24T06:57:47.444Z,46.20
2023-05-24T07:00:14.915Z,47.62
2023-05-24T07:02:42.097Z,47.99
2023-05-24T07:05:12.575Z,48.04
2023-05-24T07:07:40.479Z,48.67
2023-05-24T07:10:08.353Z,48.34
2023-05-24T07:12:35.202Z,48.35
2023-05-24T07:15:01.930Z,47.56
2023-05-24T07:17:28.637Z,47.53
2023-05-24T07:19:55.335Z,48.23
2023-05-24T07:22:22.821Z,49.01
2023-05-24T07:24:49.504Z,48.70
2023-05-24T07:27:16.262Z,47.92
2023-05-24T07:29:42.998Z,48.46
2023-05-24T07:32:09.913Z,48.21
2023-05-24T07:34:36.639Z,47.57
2023-05-24T07:37:03.941Z,47.40
2023-05-24T07:39:30.782Z,45.83
2023-05-24T07:41:57.499Z,45.59
2023-05-24T07:44:24.352Z,46.18
2023-05-24T07:46:51.309Z,46.89
2023-05-24T07:49:18.133Z,46.75
2023-05-24T07:51:45.525Z,45.34
2023-05-24T07:54:12.186Z,44.72
2023-05-24T07:56:38.816Z,44.82
2023-05-24T07:59:05.844Z,45.27
2023-05-24T08:01:35.101Z,43.45
2023-05-24T08:04:05.861Z,43.59
2023-05-24T08:06:35.481Z,45.15
2023-05-24T08:09:05.538Z,43.36
2023-05-24T08:11:32.360Z,42.71
2023-05-24T08:13:58.998Z,42.50
2023-05-24T08:16:26.136Z,42.86
2023-05-24T08:18:54.962Z,40.68
2023-05-24T08:21:22.671Z,38.34
2023-05-24T08:23:49.385Z,38.07
2023-05-24T08:26:19.160Z,36.09
2023-05-24T08:28:45.849Z,37.09
2023-05-24T08:31:12.577Z,38.06
2023-05-24T08:33:39.638Z,38.62
2023-05-24T08:36:07.161Z,38.70
2023-05-24T08:38:33.882Z,39.08
2023-05-24T08:41:00.606Z,37.89
2023-05-24T08:43:31.999Z,38.32
2023-05-24T08:46:02.422Z,38.20
2023-05-24T08:48:29.576Z,38.16
2023-05-24T08:50:57.938Z,37.23
2023-05-24T08:53:24.931Z,35.58
2023-05-24T08:55:55.910Z,36.44
2023-05-24T08:58:22.745Z,36.39
2023-05-24T09:00:49.477Z,36.45
2023-05-24T09:03:17.726Z,36.50
2023-05-24T09:05:45.424Z,36.53
2023-05-24T09:08:18.282Z,36.08
2023-05-24T09:13:19.814Z,34.57
2023-05-24T09:15:46.939Z,35.13
2023-05-24T09:18:13.701Z,35.30
2023-05-24T09:20:40.549Z,34.82
2023-05-24T09:23:08.793Z,35.53
2023-05-24T09:25:35.913Z,35.90
2023-05-24T09:28:07.801Z,35.58
2023-05-24T09:30:35.993Z,34.81
2023-05-24T09:33:04.039Z,33.42
2023-05-24T09:35:31.762Z,32.81
2023-05-24T09:38:03.320Z,32.22
2023-05-24T09:40:30.894Z,31.34
2023-05-24T09:43:09.774Z,32.19
2023-05-24T09:45:46.803Z,33.81
2023-05-24T09:48:15.333Z,32.94
2023-05-24T09:50:42.595Z,31.43
2023-05-24T09:53:09.537Z,31.46
2023-05-24T09:55:37.407Z,31.46
2023-05-24T09:58:08.623Z,32.35
2023-05-24T10:00:41.685Z,30.75
2023-05-24T10:03:15.225Z,30.28
2023-05-24T10:05:44.776Z,31.76
2023-05-24T10:08:12.598Z,31.92
2023-05-24T10:10:39.398Z,30.30
2023-05-24T10:13:06.089Z,30.49
2023-05-24T10:15:32.779Z,31.07
2023-05-24T10:18:09.827Z,29.55
2023-05-24T10:20:41.443Z,29.42
2023-05-24T10:23:10.405Z,30.36
2023-05-24T10:25:41.956Z,29.98
2023-05-24T10:28:12.740Z,30.66
2023-05-24T10:31:03.550Z,31.11
2023-05-24T10:33:32.521Z,30.30
2023-05-24T10:35:59.648Z,30.46
2023-05-24T10:38:26.434Z,30.60
2023-05-24T10:40:53.341Z,29.96
2023-05-24T10:43:21.931Z,29.64
2023-05-24T10:45:50.761Z,29.52
2023-05-24T10:48:17.737Z,29.45
2023-05-24T10:50:44.804Z,29.31
2023-05-24T10:53:19.355Z,29.07
2023-05-24T10:55:59.958Z,29.29
2023-05-24T10:58:58.325Z,29.05
2023-05-24T11:01:34.980Z,28.31
2023-05-24T11:04:15.399Z,29.68
2023-05-24T11:06:45.831Z,27.81
2023-05-24T11:09:12.505Z,28.99
2023-05-24T11:11:39.561Z,28.63
2023-05-24T11:14:06.419Z,28.75
2023-05-24T11:16:37.441Z,30.38
2023-05-24T11:19:19.419Z,29.42
2023-05-24T11:21:52.349Z,28.76
2023-05-24T11:24:20.618Z,29.16
2023-05-24T11:26:47.410Z,29.08
2023-05-24T11:29:22.792Z,28.89
2023-05-24T11:31:55.097Z,28.22
2023-05-24T11:34:22.099Z,28.70
2023-05-24T11:36:49.422Z,28.09
2023-05-24T11:39:16.727Z,27.86
2023-05-24T11:41:43.860Z,27.59
2023-05-24T11:44:12.163Z,27.94
2023-05-24T11:46:39.506Z,27.87
2023-05-24T11:49:07.091Z,28.25
2023-05-24T11:51:34.873Z,29.69
2023-05-24T11:54:01.956Z,29.13
2023-05-24T11:56:33.493Z,27.74
2023-05-24T11:59:16.127Z,29.01
2023-05-24T12:01:43.822Z,28.55
2023-05-24T12:04:12.007Z,28.66
2023-05-24T12:06:40.867Z,27.41
2023-05-24T12:09:10.365Z,27.12
2023-05-24T12:11:41.126Z,27.00
2023-05-24T12:14:12.674Z,27.73
2023-05-24T12:16:39.724Z,27.63
2023-05-24T12:19:11.846Z,27.03
2023-05-24T12:21:48.161Z,28.04
2023-05-24T12:24:16.633Z,28.14
2023-05-24T12:26:48.240Z,28.45
2023-05-24T12:29:15.870Z,28.10
2023-05-24T12:31:47.622Z,28.39
2023-05-24T12:34:16.869Z,27.85
2023-05-24T12:36:43.836Z,27.21
2023-05-24T12:39:24.273Z,25.83
2023-05-24T12:41:55.296Z,26.09
2023-05-24T12:44:26.292Z,27.50
2023-05-24T12:46:57.442Z,27.78
2023-05-24T12:49:25.244Z,26.58
2023-05-24T12:51:55.800Z,27.95
2023-05-24T12:54:25.031Z,26.45
2023-05-24T12:56:55.590Z,27.44
2023-05-24T12:59:23.207Z,27.46
2023-05-24T13:01:53.132Z,26.82
2023-05-24T13:04:22.732Z,26.47
2023-05-24T13:06:49.762Z,28.41
2023-05-24T13:09:19.062Z,27.36
2023-05-24T13:11:46.916Z,27.91
2023-05-24T13:14:15.620Z,26.94
2023-05-24T13:16:42.615Z,26.37
2023-05-24T13:19:10.448Z,27.45
2023-05-24T13:21:37.310Z,27.46
2023-05-24T13:24:05.564Z,27.06
2023-05-24T13:26:37.390Z,27.17
2023-05-24T13:31:37.641Z,28.19
2023-05-24T13:34:04.964Z,28.60
2023-05-24T13:36:31.792Z,28.10
2023-05-24T13:41:46.547Z,27.62
2023-05-24T13:44:14.787Z,27.34
2023-05-24T13:46:42.164Z,27.57
2023-05-24T13:47:40.611Z,26.73
2023-05-24T13:49:09.812Z,29.03
2023-05-24T13:51:37.959Z,31.03
2023-05-24T13:54:07.385Z,34.76
2023-05-24T13:56:35.050Z,35.97
2023-05-24T13:59:03.658Z,36.78
2023-05-24T14:01:31.277Z,37.02
2023-05-24T14:03:58.396Z,38.89
2023-05-24T14:06:25.056Z,41.39
2023-05-24T14:08:52.299Z,41.34
2023-05-24T14:11:19.742Z,42.61
2023-05-24T14:16:16.611Z,48.22
2023-05-24T14:18:43.360Z,49.79
2023-05-24T14:21:09.970Z,50.44
2023-05-24T14:23:36.681Z,51.23
2023-05-24T14:26:03.565Z,49.72
2023-05-24T14:28:30.256Z,52.25
2023-05-24T14:30:56.900Z,49.27
2023-05-24T14:33:23.675Z,51.11
2023-05-24T14:35:51.851Z,53.19
2023-05-24T14:38:18.688Z,53.64
2023-05-24T14:40:47.731Z,54.38
2023-05-24T14:43:14.447Z,53.59
2023-05-24T14:45:42.273Z,53.75
2023-05-24T14:48:13.522Z,55.18
2023-05-24T14:50:41.162Z,58.01
2023-05-24T14:53:14.238Z,55.88
2023-05-24T14:55:43.079Z,55.57
2023-05-24T14:58:12.021Z,56.62
2023-05-24T15:00:39.766Z,55.87
2023-05-24T15:03:08.124Z,53.24
2023-05-24T15:05:36.188Z,54.29
2023-05-24T15:08:02.981Z,53.14
2023-05-24T15:10:29.662Z,54.41
2023-05-24T15:12:56.352Z,50.84
2023-05-24T15:15:23.512Z,47.39
2023-05-24T15:17:50.286Z,46.15
2023-05-24T15:20:17.167Z,44.59
2023-05-24T15:22:43.976Z,43.66
2023-05-24T15:25:11.519Z,43.04
2023-05-24T15:27:38.332Z,40.75
2023-05-24T15:30:05.718Z,39.61
2023-05-24T15:32:32.384Z,38.54
2023-05-24T15:35:00.564Z,36.75
2023-05-24T15:37:27.444Z,34.97
2023-05-24T15:39:54.718Z,35.97
2023-05-24T15:42:23.575Z,35.09
2023-05-24T15:44:50.749Z,36.52
2023-05-24T15:47:18.662Z,35.54
2023-05-24T15:49:47.582Z,34.09
2023-05-24T15:52:14.306Z,34.88
2023-05-24T15:54:40.938Z,35.15
2023-05-24T15:57:07.715Z,34.68
2023-05-24T15:59:36.870Z,34.52
2023-05-24T16:02:03.619Z,41.36
2023-05-24T16:04:30.291Z,41.65
2023-05-24T16:06:56.946Z,43.53
2023-05-24T16:09:23.677Z,42.80
2023-05-24T16:11:50.483Z,44.24
2023-05-24T16:14:17.431Z,41.78
2023-05-24T16:16:44.417Z,38.89
2023-05-24T16:19:11.605Z,44.83
2023-05-24T16:21:38.462Z,44.09
2023-05-24T16:24:05.931Z,44.58
2023-05-24T16:26:32.748Z,44.59
2023-05-24T16:28:59.629Z,45.45
2023-05-24T16:31:26.349Z,40.86
2023-05-24T16:33:53.220Z,39.98
2023-05-24T16:36:21.203Z,40.33
2023-05-24T16:38:49.706Z,38.92
2023-05-24T16:41:16.437Z,39.92
2023-05-24T16:43:43.067Z,39.98
2023-05-24T16:46:11.037Z,38.84
2023-05-24T16:48:37.825Z,38.02
2023-05-24T16:51:04.568Z,37.13
2023-05-24T16:53:31.357Z,38.76
2023-05-24T16:55:58.170Z,37.97
2023-05-24T16:58:28.186Z,39.06
2023-05-24T17:00:55.112Z,39.77
2023-05-24T17:03:27.900Z,42.96
2023-05-24T17:05:56.809Z,43.74
2023-05-24T17:08:26.003Z,43.56
2023-05-24T17:10:56.226Z,44.35
2023-05-24T17:13:23.846Z,44.74
2023-05-24T17:15:52.277Z,45.74
2023-05-24T17:18:28.005Z,47.29
2023-05-24T17:21:00.010Z,47.00
2023-05-24T17:23:27.579Z,46.34
2023-05-24T17:25:55.666Z,46.43
2023-05-24T17:28:29.396Z,45.48
2023-05-24T17:31:00.511Z,45.72
2023-05-24T17:33:28.886Z,46.23
2023-05-24T17:35:56.716Z,46.65
2023-05-24T17:38:28.566Z,47.01
2023-05-24T17:40:59.630Z,46.28
2023-05-24T17:43:32.716Z,46.86
2023-05-24T17:46:04.114Z,47.25
2023-05-24T17:48:31.990Z,46.12
2023-05-24T17:51:03.982Z,45.98
2023-05-24T17:53:32.468Z,46.70
2023-05-24T17:55:59.967Z,46.67
2023-05-24T17:58:27.108Z,47.19
2023-05-24T18:00:53.784Z,45.89
2023-05-24T18:03:20.595Z,46.16
2023-05-24T18:05:47.352Z,47.80
2023-05-24T18:08:13.988Z,47.62
2023-05-24T18:10:40.782Z,48.60
2023-05-24T18:13:11.285Z,47.94
2023-05-24T18:15:37.924Z,45.87
2023-05-24T18:18:04.847Z,47.40
2023-05-24T18:20:32.401Z,46.91
2023-05-24T18:22:59.062Z,46.64
2023-05-24T18:25:25.905Z,47.42
2023-05-24T18:27:52.559Z,49.81
2023-05-24T18:30:19.359Z,52.64
2023-05-24T18:33:02.571Z,51.73
2023-05-24T18:35:32.319Z,51.31
2023-05-24T18:37:59.271Z,50.04
2023-05-24T18:40:26.168Z,49.18
2023-05-24T18:42:52.902Z,48.88
2023-05-24T18:45:19.813Z,49.18
2023-05-24T18:47:46.714Z,50.36
2023-05-24T18:50:13.415Z,49.78
2023-05-24T18:52:40.134Z,49.87
2023-05-24T18:55:10.769Z,50.57
2023-05-24T18:57:38.217Z,50.34
2023-05-24T19:00:07.191Z,49.96
2023-05-24T19:02:40.510Z,49.83
2023-05-24T19:05:08.437Z,49.94
2023-05-24T19:07:36.056Z,50.98
2023-05-24T19:10:03.385Z,51.03
2023-05-24T19:12:30.392Z,51.01
2023-05-24T19:14:57.167Z,51.55
2023-05-24T19:17:25.001Z,51.59
2023-05-24T19:19:52.765Z,51.89
2023-05-24T19:22:19.583Z,51.45
2023-05-24T19:24:46.431Z,51.28
2023-05-24T19:27:13.634Z,51.46
2023-05-24T19:29:40.343Z,51.13
2023-05-24T19:32:08.365Z,49.52
2023-05-24T19:34:37.256Z,49.77
2023-05-24T19:37:04.297Z,50.54
2023-05-24T19:39:30.953Z,50.49
2023-05-24T19:41:57.587Z,50.78
2023-05-24T19:44:24.237Z,50.55
2023-05-24T19:46:50.949Z,50.45
2023-05-24T19:49:17.551Z,51.37
2023-05-24T19:51:44.250Z,51.52
2023-05-24T19:54:11.193Z,50.97
2023-05-24T19:56:37.864Z,50.71
2023-05-24T19:59:04.556Z,50.96
2023-05-24T20:01:31.223Z,51.35
2023-05-24T20:03:58.576Z,51.39
2023-05-24T20:06:26.323Z,51.61
2023-05-24T20:08:53.410Z,51.64
2023-05-24T20:11:20.337Z,51.45
2023-05-24T20:13:47.044Z,52.27
2023-05-24T20:16:13.896Z,51.54
2023-05-24T20:18:40.884Z,51.65
2023-05-24T20:21:07.459Z,51.20
2023-05-24T20:23:34.216Z,51.09
2023-05-24T20:26:00.995Z,51.04
2023-05-24T20:28:31.282Z,51.19
2023-05-24T20:30:58.811Z,51.57
2023-05-24T20:33:25.611Z,51.96
2023-05-24T20:35:54.067Z,51.91
2023-05-24T20:38:20.763Z,52.12
2023-05-24T20:40:47.436Z,52.02
2023-05-24T20:43:14.174Z,52.32
2023-05-24T20:45:40.943Z,52.91
2023-05-24T20:48:07.656Z,53.79
2023-05-24T20:50:34.319Z,53.40
2023-05-24T20:53:00.990Z,53.08
2023-05-24T20:55:27.683Z,52.78
2023-05-24T20:57:54.376Z,53.06
2023-05-24T21:00:21.220Z,52.79
2023-05-24T21:02:48.150Z,52.93
2023-05-24T21:05:14.979Z,54.20
2023-05-24T21:07:41.690Z,54.01
2023-05-24T21:10:09.438Z,54.46
2023-05-24T21:12:36.117Z,53.99
2023-05-24T21:15:02.831Z,54.05
2023-05-24T21:17:29.506Z,54.18
2023-05-24T21:19:56.193Z,54.54
2023-05-24T21:22:23.001Z,57.13
2023-05-24T21:24:49.795Z,58.49
2023-05-24T21:27:17.868Z,57.50
2023-05-24T21:29:44.574Z,56.58
2023-05-24T21:32:11.273Z,56.18
2023-05-24T21:34:37.974Z,55.78
2023-05-24T21:37:05.193Z,55.42
2023-05-24T21:39:32.658Z,55.07
2023-05-24T21:41:59.351Z,54.84
2023-05-24T21:44:26.017Z,54.67
2023-05-24T21:46:52.787Z,54.80
2023-05-24T21:49:21.444Z,54.70
2023-05-24T21:51:48.146Z,54.26
2023-05-24T21:54:15.132Z,54.13
2023-05-24T21:56:41.767Z,54.29
2023-05-24T21:59:08.439Z,54.36
2023-05-24T22:01:35.172Z,54.32
2023-05-24T22:04:01.926Z,54.63
2023-05-24T22:06:28.764Z,55.22
2023-05-24T22:08:57.886Z,55.00
2023-05-24T22:11:24.596Z,54.98
2023-05-24T22:13:51.485Z,55.61
2023-05-24T22:16:18.258Z,55.77
2023-05-24T22:18:44.980Z,55.59
2023-05-24T22:21:14.473Z,55.95
2023-05-24T22:23:41.396Z,56.81
2023-05-24T22:26:08.104Z,57.28
2023-05-24T22:28:51.608Z,57.65
2023-05-24T22:31:19.925Z,57.64
2023-05-24T22:33:49.933Z,59.14
2023-05-24T22:36:16.943Z,62.30
2023-05-24T22:38:44.128Z,61.94
2023-05-24T22:41:11.056Z,60.12
2023-05-24T22:43:37.998Z,61.89
2023-05-24T22:46:05.881Z,62.33
2023-05-24T22:48:34.773Z,61.21
2023-05-24T22:51:01.602Z,60.22
2023-05-24T22:53:28.786Z,59.21
2023-05-24T22:55:55.655Z,60.06
2023-05-24T22:58:23.963Z,60.42
2023-05-24T23:00:51.462Z,60.35
2023-05-24T23:03:18.371Z,59.66
2023-05-24T23:05:45.808Z,59.23
2023-05-24T23:08:17.615Z,59.48
2023-05-24T23:10:46.282Z,59.54
2023-05-24T23:13:17.756Z,59.55
2023-05-24T23:15:46.904Z,59.60
2023-05-24T23:18:16.397Z,59.04
2023-05-24T23:20:44.613Z,59.72
2023-05-24T23:23:11.393Z,61.29
2023-05-24T23:25:38.167Z,63.24
2023-05-24T23:28:05.070Z,63.44
2023-05-24T23:30:31.859Z,61.78
2023-05-24T23:32:59.555Z,60.64
2023-05-24T23:35:26.283Z,61.13
2023-05-24T23:37:53.885Z,62.67
2023-05-24T23:40:20.860Z,63.43
2023-05-24T23:42:49.177Z,64.22
2023-05-24T23:45:16.395Z,65.73
2023-05-24T23:47:43.194Z,64.36
2023-05-24T23:50:10.790Z,63.92
2023-05-24T23:52:37.466Z,64.81
2023-05-24T23:55:04.500Z,64.65
2023-05-24T23:57:31.153Z,64.93
2023-05-24T23:59:57.962Z,63.90
